createdAt,value
2022-10-04T00:01:58.364Z,99970.22
2022-10-04T00:04:51.727Z,99971.81
2022-10-04T00:07:24.099Z,99976.38
2022-10-04T00:09:57.546Z,99963.41
2022-10-04T00:12:51.577Z,99957.84
2022-10-04T00:15:27.753Z,99963.38
2022-10-04T00:18:12.400Z,99959.94
2022-10-04T00:20:53.100Z,99955.50
2022-10-04T00:23:26.280Z,99956.47
2022-10-04T00:25:59.021Z,99954.13
2022-10-04T00:28:26.110Z,99957.19
2022-10-04T00:31:18.943Z,99943.22
2022-10-04T00:34:10.247Z,99940.38
2022-10-04T00:36:48.399Z,99942.94
2022-10-04T00:39:41.593Z,99944.88
2022-10-04T00:43:04.874Z,99943.13
2022-10-04T00:45:46.945Z,99948.31
2022-10-04T00:48:30.489Z,99951.88
2022-10-04T00:51:42.634Z,99943.94
2022-10-04T00:54:20.003Z,99947.50
2022-10-04T00:57:00.875Z,99944.41
2022-10-04T00:59:44.876Z,99948.41
2022-10-04T01:02:39.218Z,99946.84
2022-10-04T01:05:18.110Z,99939.59
2022-10-04T01:08:13.617Z,99944.94
2022-10-04T01:10:52.780Z,99941.41
2022-10-04T01:13:25.358Z,99930.34
2022-10-04T01:16:07.700Z,99936.28
2022-10-04T01:18:36.462Z,99930.09
2022-10-04T01:21:19.603Z,99927.25
2022-10-04T01:23:57.286Z,99935.91
2022-10-04T01:26:39.595Z,99939.19
2022-10-04T01:29:25.067Z,99937.38
2022-10-04T01:31:55.987Z,99936.53
2022-10-04T01:34:29.236Z,99926.88
2022-10-04T01:36:59.502Z,99931.09
2022-10-04T01:39:28.784Z,99929.06
2022-10-04T01:42:37.439Z,99937.38
2022-10-04T01:45:34.267Z,99941.50
2022-10-04T01:48:09.776Z,99945.00
2022-10-04T01:50:46.761Z,99948.25
2022-10-04T01:53:44.853Z,99957.41
2022-10-04T01:56:19.717Z,99947.38
2022-10-04T01:59:00.489Z,99949.09
2022-10-04T02:02:09.299Z,99955.31
2022-10-04T02:04:39.686Z,99956.13
2022-10-04T02:07:14.936Z,99956.88
2022-10-04T02:09:47.704Z,99955.78
2022-10-04T02:12:19.982Z,99963.88
2022-10-04T02:14:53.243Z,99959.75
2022-10-04T02:17:27.673Z,99962.28
2022-10-04T02:19:55.407Z,99952.84
2022-10-04T02:22:25.209Z,99956.84
2022-10-04T02:24:56.383Z,99956.59
2022-10-04T02:27:31.355Z,99961.91
2022-10-04T02:30:05.701Z,99958.25
2022-10-04T02:32:52.357Z,99964.72
2022-10-04T02:35:20.675Z,99962.50
2022-10-04T02:37:56.503Z,99959.81
2022-10-04T02:40:31.156Z,99964.78
2022-10-04T02:43:07.307Z,99960.47
2022-10-04T02:45:44.951Z,99961.03
2022-10-04T02:48:44.442Z,99961.34
2022-10-04T02:51:59.676Z,99965.03
2022-10-04T02:54:49.813Z,99961.41
2022-10-04T02:57:23.390Z,99957.88
2022-10-04T03:00:01.710Z,99961.91
2022-10-04T03:02:31.120Z,99964.53
2022-10-04T03:05:10.768Z,99960.38
2022-10-04T03:07:39.437Z,99962.06
2022-10-04T03:10:12.643Z,99966.38
2022-10-04T03:12:40.895Z,99968.38
2022-10-04T03:15:11.833Z,99962.97
2022-10-04T03:17:42.700Z,99962.69
2022-10-04T03:20:15.693Z,99958.91
2022-10-04T03:22:47.164Z,99968.66
2022-10-04T03:25:34.247Z,99965.06
2022-10-04T03:28:02.913Z,99967.41
2022-10-04T03:30:31.929Z,99964.13
2022-10-04T03:32:59.896Z,99966.31
2022-10-04T03:35:40.489Z,99968.53
2022-10-04T03:38:12.476Z,99972.16
2022-10-04T03:40:45.269Z,99971.13
2022-10-04T03:43:14.361Z,99976.56
2022-10-04T03:45:42.346Z,99975.59
2022-10-04T03:48:15.013Z,99971.44
2022-10-04T03:50:48.342Z,99975.03
2022-10-04T03:53:35.808Z,99974.00
2022-10-04T03:56:09.744Z,99983.22
2022-10-04T03:58:37.123Z,99982.13
2022-10-04T04:01:14.758Z,99980.88
2022-10-04T04:03:57.307Z,99969.66
2022-10-04T04:06:26.960Z,99984.25
2022-10-04T04:08:56.572Z,99981.03
2022-10-04T04:11:28.342Z,99976.59
2022-10-04T04:14:14.665Z,99981.41
2022-10-04T04:16:41.710Z,99984.63
2022-10-04T04:19:15.740Z,99987.41
2022-10-04T04:21:43.197Z,99986.78
2022-10-04T04:24:32.246Z,99989.16
2022-10-04T04:27:05.272Z,99997.72
2022-10-04T04:30:00.211Z,100000.34
2022-10-04T04:32:45.430Z,100000.28
2022-10-04T04:35:33.663Z,100004.94
2022-10-04T04:38:23.089Z,100005.78
2022-10-04T04:40:55.577Z,100007.69
2022-10-04T04:43:27.663Z,100009.97
2022-10-04T04:46:25.558Z,100014.88
2022-10-04T04:48:51.874Z,100003.25
2022-10-04T04:51:24.714Z,100004.34
2022-10-04T04:53:54.462Z,100012.41
2022-10-04T04:56:26.560Z,100009.59
2022-10-04T04:58:56.565Z,100018.47
2022-10-04T05:01:33.856Z,100018.53
2022-10-04T05:04:04.370Z,100033.13
2022-10-04T05:06:34.222Z,100033.66
2022-10-04T05:09:01.947Z,100042.50
2022-10-04T05:11:37.783Z,100037.56
2022-10-04T05:14:14.308Z,100045.97
2022-10-04T05:16:46.249Z,100045.28
2022-10-04T05:19:28.820Z,100039.34
2022-10-04T05:22:02.496Z,100045.75
2022-10-04T05:24:38.786Z,100057.78
2022-10-04T05:27:31.613Z,100060.28
2022-10-04T05:30:09.516Z,100057.19
2022-10-04T05:33:00.889Z,100068.47
2022-10-04T05:35:29.991Z,100071.22
2022-10-04T05:38:29.014Z,100073.25
2022-10-04T05:41:39.362Z,100082.16
2022-10-04T05:44:31.578Z,100089.41
2022-10-04T05:47:01.490Z,100094.69
2022-10-04T05:49:43.948Z,100096.41
2022-10-04T05:52:35.995Z,100097.59
2022-10-04T05:55:51.579Z,100105.88
2022-10-04T05:58:38.419Z,100098.06
2022-10-04T06:01:26.562Z,100094.78
2022-10-04T06:04:01.559Z,100106.06
2022-10-04T06:06:51.466Z,100103.66
2022-10-04T06:09:47.404Z,100109.69
2022-10-04T06:12:47.993Z,100101.53
2022-10-04T06:15:51.741Z,100102.31
2022-10-04T06:19:09.649Z,100123.50
2022-10-04T06:22:00.205Z,100112.84
2022-10-04T06:24:37.372Z,100124.94
2022-10-04T06:27:15.084Z,100121.34
2022-10-04T06:30:02.827Z,100127.91
2022-10-04T06:33:14.053Z,100126.16
2022-10-04T06:36:05.202Z,100135.66
2022-10-04T06:39:12.773Z,100135.13
2022-10-04T06:42:15.259Z,100140.16
2022-10-04T06:45:05.366Z,100143.63
2022-10-04T06:47:49.618Z,100144.00
2022-10-04T06:50:35.461Z,100144.50
2022-10-04T06:53:11.759Z,100159.03
2022-10-04T06:56:09.529Z,100165.94
2022-10-04T06:59:09.777Z,100163.38
2022-10-04T07:01:47.525Z,100162.84
2022-10-04T07:05:06.548Z,100166.88
2022-10-04T07:07:41.998Z,100173.41
2022-10-04T07:10:18.053Z,100171.72
2022-10-04T07:13:11.195Z,100178.59
2022-10-04T07:15:59.644Z,100188.94
2022-10-04T07:18:55.162Z,100196.78
2022-10-04T07:21:26.276Z,100193.25
2022-10-04T07:24:03.948Z,100206.38
2022-10-04T07:26:48.816Z,100210.81
2022-10-04T07:29:41.886Z,100206.59
2022-10-04T07:32:28.961Z,100217.22
2022-10-04T07:35:04.425Z,100217.31
2022-10-04T07:37:46.347Z,100207.56
2022-10-04T07:40:56.517Z,100215.84
2022-10-04T07:43:34.177Z,100217.84
2022-10-04T07:46:59.373Z,100221.41
2022-10-04T07:49:27.170Z,100227.47
2022-10-04T07:52:26.722Z,100233.06
2022-10-04T07:55:15.124Z,100236.38
2022-10-04T07:58:02.146Z,100236.88
2022-10-04T08:01:01.705Z,100249.25
2022-10-04T08:04:05.402Z,100247.41
2022-10-04T08:06:58.116Z,100245.00
2022-10-04T08:09:55.213Z,100245.56
2022-10-04T08:12:34.738Z,100244.03
2022-10-04T08:15:13.894Z,100249.19
2022-10-04T08:18:23.442Z,100244.94
2022-10-04T08:21:07.157Z,100251.97
2022-10-04T08:24:07.237Z,100252.09
2022-10-04T08:27:00.772Z,100255.03
2022-10-04T08:30:08.065Z,100261.28
2022-10-04T08:33:07.684Z,100258.25
2022-10-04T08:35:53.878Z,100242.53
2022-10-04T08:38:34.863Z,100257.53
2022-10-04T08:41:27.007Z,100261.59
2022-10-04T08:44:20.747Z,100266.59
2022-10-04T08:47:45.987Z,100267.38
2022-10-04T08:51:07.262Z,100282.38
2022-10-04T08:53:49.003Z,100270.06
2022-10-04T08:56:43.780Z,100273.81
2022-10-04T08:59:51.187Z,100278.09
2022-10-04T09:03:06.397Z,100286.06
2022-10-04T09:06:00.365Z,100294.75
2022-10-04T09:09:46.741Z,100289.09
2022-10-04T09:12:51.014Z,100283.03
2022-10-04T09:15:44.243Z,100294.69
2022-10-04T09:18:51.836Z,100295.72
2022-10-04T09:21:46.340Z,100301.94
2022-10-04T09:24:47.345Z,100297.00
2022-10-04T09:27:54.575Z,100301.28
2022-10-04T09:30:49.167Z,100300.16
2022-10-04T09:34:17.139Z,100306.66
2022-10-04T09:37:16.879Z,100315.44
2022-10-04T09:40:42.394Z,100318.00
2022-10-04T09:44:00.328Z,100329.28
2022-10-04T09:46:47.620Z,100328.75
2022-10-04T09:49:37.865Z,100326.28
2022-10-04T09:52:30.048Z,100334.78
2022-10-04T09:55:41.500Z,100329.84
2022-10-04T09:58:30.126Z,100337.81
2022-10-04T10:01:09.229Z,100341.63
2022-10-04T10:04:05.793Z,100337.84
2022-10-04T10:06:49.335Z,100341.91
2022-10-04T10:10:09.792Z,100336.19
2022-10-04T10:13:33.295Z,100340.50
2022-10-04T10:16:21.418Z,100331.88
2022-10-04T10:19:27.446Z,100341.91
2022-10-04T10:22:52.749Z,100344.56
2022-10-04T10:26:04.396Z,100342.63
2022-10-04T10:29:18.344Z,100351.59
2022-10-04T10:32:16.139Z,100354.03
2022-10-04T10:35:29.674Z,100357.78
2022-10-04T10:38:25.686Z,100357.69
2022-10-04T10:41:22.542Z,100347.09
2022-10-04T10:44:02.400Z,100360.63
2022-10-04T10:47:09.628Z,100357.94
2022-10-04T10:49:54.736Z,100362.88
2022-10-04T10:52:42.449Z,100363.25
2022-10-04T10:55:38.138Z,100368.66
2022-10-04T10:59:05.569Z,100357.03
2022-10-04T11:02:42.346Z,100374.00
2022-10-04T11:06:03.652Z,100364.97
2022-10-04T11:09:17.131Z,100373.09
2022-10-04T11:12:21.516Z,100382.94
2022-10-04T11:15:29.392Z,100387.38
2022-10-04T11:18:02.375Z,100392.69
2022-10-04T11:20:53.295Z,100393.63
2022-10-04T11:24:13.825Z,100397.16
2022-10-04T11:27:47.816Z,100391.66
2022-10-04T11:30:25.110Z,100399.00
2022-10-04T11:33:20.420Z,100406.97
2022-10-04T11:36:22.503Z,100415.00
2022-10-04T11:39:23.871Z,100419.41
2022-10-04T11:42:21.660Z,100415.03
2022-10-04T11:45:33.997Z,100413.22
2022-10-04T11:48:27.065Z,100421.25
2022-10-04T11:51:35.230Z,100416.78
2022-10-04T11:54:45.757Z,100419.44
2022-10-04T11:57:44.306Z,100410.50
2022-10-04T12:00:20.715Z,100417.72
2022-10-04T12:03:35.530Z,100415.00
2022-10-04T12:06:39.976Z,100419.47
2022-10-04T12:09:40.663Z,100420.34
2022-10-04T12:12:54.416Z,100433.66
2022-10-04T12:16:01.610Z,100430.94
2022-10-04T12:19:07.615Z,100439.66
2022-10-04T12:22:30.888Z,100438.72
2022-10-04T12:25:28.232Z,100437.00
2022-10-04T12:28:32.822Z,100425.59
2022-10-04T12:31:33.366Z,100435.13
2022-10-04T12:34:14.755Z,100436.97
2022-10-04T12:37:13.827Z,100442.22
2022-10-04T12:39:58.539Z,100441.34
2022-10-04T12:42:45.843Z,100440.28
2022-10-04T12:45:54.422Z,100449.84
2022-10-04T12:49:00.777Z,100457.75
2022-10-04T12:51:53.678Z,100461.97
2022-10-04T12:54:47.552Z,100465.56
2022-10-04T12:57:38.602Z,100466.06
2022-10-04T13:00:23.401Z,100468.72
2022-10-04T13:03:14.991Z,100468.47
2022-10-04T13:06:06.537Z,100466.78
2022-10-04T13:09:02.457Z,100473.63
2022-10-04T13:12:00.741Z,100469.41
2022-10-04T13:15:24.419Z,100470.34
2022-10-04T13:18:26.888Z,100476.69
2022-10-04T13:21:07.792Z,100464.19
2022-10-04T13:24:15.816Z,100484.44
2022-10-04T13:27:16.381Z,100484.31
2022-10-04T13:30:14.372Z,100475.56
2022-10-04T13:33:23.859Z,100487.78
2022-10-04T13:36:19.391Z,100486.13
2022-10-04T13:39:09.873Z,100496.00
2022-10-04T13:42:23.175Z,100497.59
2022-10-04T13:45:20.429Z,100496.81
2022-10-04T13:48:12.757Z,100501.94
2022-10-04T13:51:16.987Z,100502.31
2022-10-04T13:54:49.030Z,100506.63
2022-10-04T13:57:41.976Z,100504.94
2022-10-04T14:00:20.288Z,100506.41
2022-10-04T14:03:30.435Z,100506.69
2022-10-04T14:06:19.769Z,100504.88
2022-10-04T14:09:05.509Z,100511.81
2022-10-04T14:11:50.409Z,100495.50
2022-10-04T14:15:03.905Z,100514.50
2022-10-04T14:18:21.300Z,100519.38
2022-10-04T14:21:36.403Z,100526.50
2022-10-04T14:24:57.258Z,100527.13
2022-10-04T14:28:15.388Z,100538.88
2022-10-04T14:31:13.335Z,100532.25
2022-10-04T14:34:38.003Z,100539.44
2022-10-04T14:37:46.115Z,100540.94
2022-10-04T14:40:34.197Z,100546.53
2022-10-04T14:44:01.741Z,100548.13
2022-10-04T14:47:11.660Z,100552.38
2022-10-04T14:50:13.132Z,100550.47
2022-10-04T14:52:58.164Z,100551.56
2022-10-04T14:55:57.601Z,100549.47
2022-10-04T14:59:19.045Z,100555.78
2022-10-04T15:02:01.066Z,100560.22
2022-10-04T15:05:13.163Z,100561.00
2022-10-04T15:07:47.649Z,100564.91
2022-10-04T15:10:33.037Z,100567.25
2022-10-04T15:13:39.465Z,100571.56
2022-10-04T15:16:37.448Z,100574.06
2022-10-04T15:19:11.359Z,100566.09
2022-10-04T15:21:59.683Z,100574.91
2022-10-04T15:24:30.339Z,100570.53
2022-10-04T15:27:29.744Z,100571.16
2022-10-04T15:30:20.971Z,100575.56
2022-10-04T15:33:03.001Z,100575.41
2022-10-04T15:36:06.856Z,100575.97
2022-10-04T15:39:05.147Z,100576.09
2022-10-04T15:42:01.370Z,100588.88
2022-10-04T15:45:00.344Z,100588.81
2022-10-04T15:48:35.605Z,100603.66
2022-10-04T15:52:03.318Z,100605.31
2022-10-04T15:55:26.149Z,100612.25
2022-10-04T15:58:35.270Z,100609.44
2022-10-04T16:01:47.204Z,100606.00
2022-10-04T16:04:44.876Z,100619.00
2022-10-04T16:07:40.357Z,100622.28
2022-10-04T16:10:47.725Z,100631.94
2022-10-04T16:13:17.335Z,100634.63
2022-10-04T16:15:50.324Z,100637.25
2022-10-04T16:19:02.188Z,100643.25
2022-10-04T16:22:15.145Z,100644.59
2022-10-04T16:24:50.697Z,100648.19
2022-10-04T16:27:55.996Z,100644.22
2022-10-04T16:30:30.534Z,100643.19
2022-10-04T16:33:09.505Z,100649.22
2022-10-04T16:35:52.503Z,100650.81
2022-10-04T16:38:28.754Z,100657.06
2022-10-04T16:41:28.113Z,100659.44
2022-10-04T16:43:56.210Z,100661.16
2022-10-04T16:46:46.251Z,100650.19
2022-10-04T16:49:38.840Z,100660.81
2022-10-04T16:52:36.479Z,100660.94
2022-10-04T16:55:33.300Z,100662.53
2022-10-04T16:58:27.901Z,100670.19
2022-10-04T17:01:34.087Z,100668.91
2022-10-04T17:04:41.229Z,100658.22
2022-10-04T17:07:13.504Z,100670.78
2022-10-04T17:10:38.462Z,100676.88
2022-10-04T17:13:35.543Z,100673.03
2022-10-04T17:16:39.449Z,100680.88
2022-10-04T17:19:45.547Z,100684.91
2022-10-04T17:22:42.898Z,100688.38
2022-10-04T17:25:25.045Z,100684.06
2022-10-04T17:28:43.307Z,100691.63
2022-10-04T17:31:27.533Z,100694.91
2022-10-04T17:34:39.573Z,100691.44
2022-10-04T17:37:32.467Z,100687.78
2022-10-04T17:40:33.649Z,100687.56
2022-10-04T17:43:43.546Z,100682.78
2022-10-04T17:46:47.152Z,100691.53
2022-10-04T17:49:41.993Z,100694.41
2022-10-04T17:52:50.507Z,100691.44
2022-10-04T17:55:28.688Z,100695.09
2022-10-04T17:58:08.942Z,100702.19
2022-10-04T18:01:08.363Z,100696.53
2022-10-04T18:03:54.730Z,100696.13
2022-10-04T18:06:55.921Z,100704.91
2022-10-04T18:09:45.976Z,100711.84
2022-10-04T18:12:42.249Z,100711.97
2022-10-04T18:15:29.700Z,100723.03
2022-10-04T18:18:41.326Z,100717.81
2022-10-04T18:21:31.780Z,100716.88
2022-10-04T18:24:22.576Z,100728.69
2022-10-04T18:27:05.700Z,100730.13
2022-10-04T18:29:50.982Z,100729.81
2022-10-04T18:32:45.195Z,100732.25
2022-10-04T18:35:34.252Z,100734.38
2022-10-04T18:38:25.319Z,100735.03
2022-10-04T18:41:07.585Z,100734.06
2022-10-04T18:44:00.151Z,100741.03
2022-10-04T18:46:41.305Z,100742.66
2022-10-04T18:49:26.109Z,100752.25
2022-10-04T18:52:22.886Z,100753.47
2022-10-04T18:55:58.415Z,100758.03
2022-10-04T18:59:18.214Z,100764.94
2022-10-04T19:02:43.336Z,100774.38
2022-10-04T19:05:27.934Z,100771.22
2022-10-04T19:08:29.488Z,100777.44
2022-10-04T19:11:36.943Z,100768.41
2022-10-04T19:14:36.445Z,100773.91
2022-10-04T19:17:26.863Z,100771.78
2022-10-04T19:20:23.818Z,100780.38
2022-10-04T19:23:37.433Z,100782.84
2022-10-04T19:26:53.615Z,100782.94
2022-10-04T19:29:59.079Z,100785.09
2022-10-04T19:32:42.903Z,100781.91
2022-10-04T19:35:55.630Z,100792.38
2022-10-04T19:38:56.004Z,100787.56
2022-10-04T19:42:11.268Z,100790.22
2022-10-04T19:44:56.608Z,100794.78
2022-10-04T19:47:57.447Z,100797.94
2022-10-04T19:50:32.600Z,100801.53
2022-10-04T19:53:12.563Z,100804.88
2022-10-04T19:55:57.458Z,100798.22
2022-10-04T19:58:58.518Z,100807.03
2022-10-04T20:01:26.324Z,100809.63
2022-10-04T20:04:12.235Z,100811.06
2022-10-04T20:06:49.861Z,100809.41
2022-10-04T20:09:41.380Z,100810.69
2022-10-04T20:12:35.597Z,100825.06
2022-10-04T20:15:17.642Z,100821.50
2022-10-04T20:17:47.607Z,100826.88
2022-10-04T20:20:36.282Z,100832.03
2022-10-04T20:23:03.235Z,100829.91
2022-10-04T20:25:45.943Z,100828.22
2022-10-04T20:28:32.911Z,100835.88
2022-10-04T20:31:02.787Z,100835.19
2022-10-04T20:33:46.226Z,100838.41
2022-10-04T20:36:46.589Z,100837.44
2022-10-04T20:39:41.739Z,100842.31
2022-10-04T20:42:33.822Z,100846.50
2022-10-04T20:45:09.670Z,100849.97
2022-10-04T20:47:52.494Z,100841.13
2022-10-04T20:50:39.919Z,100842.16
2022-10-04T20:53:17.215Z,100849.25
2022-10-04T20:55:46.069Z,100850.56
2022-10-04T20:58:35.292Z,100852.19
2022-10-04T21:01:35.967Z,100853.81
2022-10-04T21:04:30.586Z,100846.53
2022-10-04T21:07:06.385Z,100861.19
2022-10-04T21:09:36.220Z,100842.53
2022-10-04T21:12:05.049Z,100847.94
2022-10-04T21:14:37.623Z,100854.19
2022-10-04T21:17:25.932Z,100853.06
2022-10-04T21:19:52.902Z,100853.16
2022-10-04T21:22:25.908Z,100861.13
2022-10-04T21:25:02.111Z,100868.72
2022-10-04T21:27:34.935Z,100872.97
2022-10-04T21:30:05.635Z,100861.97
2022-10-04T21:32:37.313Z,100857.47
2022-10-04T21:35:06.507Z,100871.16
2022-10-04T21:37:34.597Z,100858.44
2022-10-04T21:40:01.887Z,100852.81
2022-10-04T21:42:28.806Z,100840.59
2022-10-04T21:44:55.711Z,100845.59
2022-10-04T21:47:22.764Z,100844.09
2022-10-04T21:49:51.895Z,100853.09
2022-10-04T21:52:19.198Z,100848.34
2022-10-04T21:54:46.632Z,100850.75
2022-10-04T21:57:14.093Z,100857.34
2022-10-04T21:59:40.989Z,100855.63
2022-10-04T22:02:08.400Z,100864.22
2022-10-04T22:04:35.385Z,100868.81
2022-10-04T22:07:02.310Z,100866.81
2022-10-04T22:09:29.268Z,100864.84
2022-10-04T22:11:56.279Z,100861.59
2022-10-04T22:14:23.275Z,100865.16
2022-10-04T22:16:50.942Z,100865.84
2022-10-04T22:19:18.186Z,100867.91
2022-10-04T22:21:45.096Z,100868.47
2022-10-04T22:24:19.881Z,100879.78
2022-10-04T22:26:47.339Z,100881.25
2022-10-04T22:29:17.506Z,100876.69
2022-10-04T22:31:51.368Z,100883.25
2022-10-04T22:34:22.802Z,100895.63
2022-10-04T22:36:52.103Z,100893.19
2022-10-04T22:39:20.830Z,100891.31
2022-10-04T22:41:53.733Z,100901.66
2022-10-04T22:44:34.618Z,100902.34
2022-10-04T22:47:09.869Z,100910.19
2022-10-04T22:49:40.212Z,100900.41
2022-10-04T22:52:15.488Z,100914.09
2022-10-04T22:54:46.981Z,100912.84
2022-10-04T22:57:15.949Z,100904.88
2022-10-04T22:59:52.795Z,100904.38
2022-10-04T23:02:28.547Z,100910.00
2022-10-04T23:05:18.991Z,100908.75
2022-10-04T23:07:47.406Z,100904.63
2022-10-04T23:10:17.742Z,100904.16
2022-10-04T23:12:51.577Z,100906.59
2022-10-04T23:15:21.059Z,100897.78
2022-10-04T23:17:55.465Z,100895.41
2022-10-04T23:20:23.261Z,100904.31
2022-10-04T23:22:54.282Z,100896.03
2022-10-04T23:25:28.267Z,100904.56
2022-10-04T23:28:24.775Z,100892.00
2022-10-04T23:31:06.156Z,100908.53
2022-10-04T23:33:33.095Z,100894.69
2022-10-04T23:36:00.090Z,100901.09
2022-10-04T23:38:29.309Z,100902.28
2022-10-04T23:40:56.285Z,100889.09
2022-10-04T23:43:25.754Z,100897.84
2022-10-04T23:45:56.217Z,100894.59
2022-10-04T23:48:26.868Z,100898.94
2022-10-04T23:50:56.453Z,100898.25
2022-10-04T23:53:30.717Z,100891.84
2022-10-04T23:56:02.662Z,100890.28
2022-10-04T23:58:35.886Z,100896.50
